Impacts METAR Board INFO
IDs:

KLGA - New York/La Guardia, NY, US

Updated at: 0715 UTC 13 Dec 2017
Potential Impact None Slight Moderate High
Time12/19Z 12/20Z 12/21Z 12/22Z 12/23Z 13/00Z 13/01Z 13/02Z 13/03Z 13/04Z 13/05Z 13/06Z 13/07Z
VIS10 10 10 10 10 10 9 10 10 10 10 10 10
CIG38 55 100 100 47 250 31 110 -- -- 50 55 --
CoverOVCOVCOVCOVCOVCBKNOVCBKNSCTSCTBKNBKNSCT
FltCatVFRVFRVFRVFRVFRVFRVFRVFRVFRVFRVFRVFRVFR
WX-RA-----------SN------------
WDir290300290290290300310310310300310310300
WSpd11 8 10 17 16 15 22 21 20 19 20 18 25
WGst-- -- -- 20 25 23 31 26 27 -- 27 -- 30
Raw hourly METARs
KLGA 121851Z 29011KT 10SM -RA SCT028 BKN038 BKN055 OVC150 08/02 A2943 RMK AO2 RAB34 SLP966 P0000 T00830017
KLGA 121951Z 30008KT 10SM FEW026 SCT044 OVC055 07/02 A2943 RMK AO2 RAE32 SLP965 P0000 T00720017
KLGA 122051Z 29010KT 10SM FEW025 SCT060 BKN100 OVC150 07/01 A2941 RMK AO2 SLP960 60000 T00720011 56013
KLGA 122151Z 29017G20KT 10SM FEW030 SCT055 BKN100 OVC150 07/01 A2942 RMK AO2 SLP961 T00720006
KLGA 122251Z 29016G25KT 10SM FEW027 SCT036 OVC047 06/01 A2944 RMK AO2 RAB26E48 CIG 034 R22 SW SLP968 P0000 T00610006
KLGA 122351Z COR 30015G23KT 10SM FEW035 SCT110 BKN250 06/00 A2944 RMK AO2 SLP969 60000 T00560000 10089 20056 52009
KLGA 130051Z 31022G31KT 9SM -SN FEW019 BKN031 OVC040 03/M02 A2947 RMK AO2 PK WND 30038/0029 RAB30E34SNB34 SLP980 P0000 T00281017
KLGA 130151Z 31021G26KT 10SM FEW060 BKN110 02/M04 A2944 RMK AO2 PK WND 32033/0108 SNE02 SLP968 P0000 T00221039
KLGA 130251Z 31020G27KT 10SM FEW060 SCT110 02/M05 A2942 RMK AO2 PK WND 32032/0159 SLP962 60000 T00171050 58007
KLGA 130351Z 30019KT 10SM SCT045 01/M08 A2945 RMK AO2 PK WND 32030/0318 SLP972 T00111083
KLGA 130451Z 31020G27KT 10SM BKN050 00/M09 A2946 RMK AO2 PK WND 32027/0447 SLP977 T00001094 401060000
KLGA 130551Z 31018KT 10SM BKN055 M01/M10 A2948 RMK AO2 SLP984 931000 60000 T10111100 10056 21011 51022
KLGA 130651Z 30025G30KT 10SM SCT050 M03/M14 A2951 RMK AO2 PK WND 30033/0632 SLP994 T10281144